sensor_id;sensor_type;location;lat;lon;timestamp;P1;durP1;ratioP1;P2;durP2;ratioP2
20456;SDS011;10387;51.102;6.848;2023-09-12T00:00:16;12.60;;;11.00;;
20456;SDS011;10387;51.102;6.848;2023-09-12T00:02:42;12.33;;;10.60;;
20456;SDS011;10387;51.102;6.848;2023-09-12T00:05:08;13.83;;;11.77;;
20456;SDS011;10387;51.102;6.848;2023-09-12T00:07:35;14.33;;;11.60;;
20456;SDS011;10387;51.102;6.848;2023-09-12T00:10:03;14.70;;;12.37;;
20456;SDS011;10387;51.102;6.848;2023-09-12T00:12:29;14.53;;;11.87;;
20456;SDS011;10387;51.102;6.848;2023-09-12T00:14:57;15.83;;;13.07;;
20456;SDS011;10387;51.102;6.848;2023-09-12T00:17:24;20.77;;;15.20;;
20456;SDS011;10387;51.102;6.848;2023-09-12T00:19:58;19.87;;;15.43;;
20456;SDS011;10387;51.102;6.848;2023-09-12T00:22:26;21.83;;;15.73;;
20456;SDS011;10387;51.102;6.848;2023-09-12T00:24:52;20.77;;;16.73;;
20456;SDS011;10387;51.102;6.848;2023-09-12T00:27:18;20.60;;;16.90;;
20456;SDS011;10387;51.102;6.848;2023-09-12T00:29:44;28.57;;;20.80;;
20456;SDS011;10387;51.102;6.848;2023-09-12T00:32:11;31.03;;;25.50;;
20456;SDS011;10387;51.102;6.848;2023-09-12T00:34:39;28.80;;;22.50;;
20456;SDS011;10387;51.102;6.848;2023-09-12T00:37:05;21.67;;;17.23;;
20456;SDS011;10387;51.102;6.848;2023-09-12T00:39:31;20.30;;;15.70;;
20456;SDS011;10387;51.102;6.848;2023-09-12T00:41:57;20.40;;;15.37;;
20456;SDS011;10387;51.102;6.848;2023-09-12T00:44:24;18.40;;;15.17;;
20456;SDS011;10387;51.102;6.848;2023-09-12T00:46:50;19.00;;;14.63;;
20456;SDS011;10387;51.102;6.848;2023-09-12T00:49:19;18.67;;;14.70;;
20456;SDS011;10387;51.102;6.848;2023-09-12T00:51:59;15.90;;;13.10;;
20456;SDS011;10387;51.102;6.848;2023-09-12T00:54:27;16.27;;;11.93;;
20456;SDS011;10387;51.102;6.848;2023-09-12T00:56:54;16.00;;;12.97;;
20456;SDS011;10387;51.102;6.848;2023-09-12T00:59:22;18.33;;;13.83;;
20456;SDS011;10387;51.102;6.848;2023-09-12T01:01:48;14.40;;;12.03;;
20456;SDS011;10387;51.102;6.848;2023-09-12T01:04:16;15.43;;;12.43;;
20456;SDS011;10387;51.102;6.848;2023-09-12T01:06:42;12.53;;;11.23;;
20456;SDS011;10387;51.102;6.848;2023-09-12T01:09:09;14.27;;;11.40;;
20456;SDS011;10387;51.102;6.848;2023-09-12T01:11:36;13.17;;;11.60;;
20456;SDS011;10387;51.102;6.848;2023-09-12T01:14:02;14.93;;;11.97;;
20456;SDS011;10387;51.102;6.848;2023-09-12T01:16:28;13.73;;;12.33;;
20456;SDS011;10387;51.102;6.848;2023-09-12T01:18:54;18.30;;;11.60;;
20456;SDS011;10387;51.102;6.848;2023-09-12T01:26:56;13.13;;;11.07;;
20456;SDS011;10387;51.102;6.848;2023-09-12T01:29:25;13.10;;;10.90;;
20456;SDS011;10387;51.102;6.848;2023-09-12T01:31:51;13.50;;;11.90;;
20456;SDS011;10387;51.102;6.848;2023-09-12T01:34:18;15.43;;;12.83;;
20456;SDS011;10387;51.102;6.848;2023-09-12T01:36:44;16.27;;;13.00;;
20456;SDS011;10387;51.102;6.848;2023-09-12T01:39:10;15.63;;;12.13;;
20456;SDS011;10387;51.102;6.848;2023-09-12T01:41:39;14.00;;;12.20;;
20456;SDS011;10387;51.102;6.848;2023-09-12T01:44:06;17.60;;;13.23;;
20456;SDS011;10387;51.102;6.848;2023-09-12T01:46:34;17.40;;;13.60;;
20456;SDS011;10387;51.102;6.848;2023-09-12T01:49:02;16.23;;;12.93;;
20456;SDS011;10387;51.102;6.848;2023-09-12T01:51:28;18.27;;;12.93;;
20456;SDS011;10387;51.102;6.848;2023-09-12T01:53:56;16.10;;;13.37;;
20456;SDS011;10387;51.102;6.848;2023-09-12T01:56:22;15.53;;;12.90;;
20456;SDS011;10387;51.102;6.848;2023-09-12T01:58:49;16.10;;;12.83;;
20456;SDS011;10387;51.102;6.848;2023-09-12T02:01:15;17.03;;;13.13;;
20456;SDS011;10387;51.102;6.848;2023-09-12T02:03:41;16.67;;;13.30;;
20456;SDS011;10387;51.102;6.848;2023-09-12T02:06:07;18.73;;;14.30;;
20456;SDS011;10387;51.102;6.848;2023-09-12T02:08:33;16.20;;;13.63;;
20456;SDS011;10387;51.102;6.848;2023-09-12T02:10:59;16.80;;;14.30;;
20456;SDS011;10387;51.102;6.848;2023-09-12T02:13:26;16.63;;;14.73;;
20456;SDS011;10387;51.102;6.848;2023-09-12T02:15:58;19.83;;;15.90;;
20456;SDS011;10387;51.102;6.848;2023-09-12T02:18:24;19.80;;;17.07;;
20456;SDS011;10387;51.102;6.848;2023-09-12T02:20:50;24.07;;;18.67;;
20456;SDS011;10387;51.102;6.848;2023-09-12T02:23:16;25.50;;;19.77;;
20456;SDS011;10387;51.102;6.848;2023-09-12T02:25:42;23.97;;;18.37;;
20456;SDS011;10387;51.102;6.848;2023-09-12T02:28:08;25.33;;;18.97;;
20456;SDS011;10387;51.102;6.848;2023-09-12T02:30:37;25.30;;;20.50;;
20456;SDS011;10387;51.102;6.848;2023-09-12T02:33:05;28.83;;;20.73;;
20456;SDS011;10387;51.102;6.848;2023-09-12T02:35:31;29.37;;;20.83;;
20456;SDS011;10387;51.102;6.848;2023-09-12T02:37:57;28.57;;;21.23;;
20456;SDS011;10387;51.102;6.848;2023-09-12T02:40:24;28.23;;;21.30;;
20456;SDS011;10387;51.102;6.848;2023-09-12T02:42:50;29.37;;;21.87;;
20456;SDS011;10387;51.102;6.848;2023-09-12T02:45:17;27.83;;;20.57;;
20456;SDS011;10387;51.102;6.848;2023-09-12T02:47:43;27.83;;;21.00;;
20456;SDS011;10387;51.102;6.848;2023-09-12T02:50:11;27.33;;;20.70;;
20456;SDS011;10387;51.102;6.848;2023-09-12T02:52:37;26.23;;;20.63;;
20456;SDS011;10387;51.102;6.848;2023-09-12T02:55:03;25.43;;;20.37;;
20456;SDS011;10387;51.102;6.848;2023-09-12T02:57:31;27.27;;;20.47;;
20456;SDS011;10387;51.102;6.848;2023-09-12T02:59:57;25.97;;;19.53;;
20456;SDS011;10387;51.102;6.848;2023-09-12T03:02:23;23.67;;;18.70;;
20456;SDS011;10387;51.102;6.848;2023-09-12T03:04:49;24.17;;;17.93;;
20456;SDS011;10387;51.102;6.848;2023-09-12T03:07:16;22.07;;;16.33;;
20456;SDS011;10387;51.102;6.848;2023-09-12T03:09:42;22.00;;;17.70;;
20456;SDS011;10387;51.102;6.848;2023-09-12T03:12:08;19.33;;;16.43;;
20456;SDS011;10387;51.102;6.848;2023-09-12T03:14:34;21.47;;;16.33;;
20456;SDS011;10387;51.102;6.848;2023-09-12T03:17:01;19.03;;;15.23;;
20456;SDS011;10387;51.102;6.848;2023-09-12T03:19:29;16.83;;;14.93;;
20456;SDS011;10387;51.102;6.848;2023-09-12T03:21:56;20.10;;;14.87;;
20456;SDS011;10387;51.102;6.848;2023-09-12T03:24:23;18.10;;;13.80;;
20456;SDS011;10387;51.102;6.848;2023-09-12T03:26:53;16.40;;;13.47;;
20456;SDS011;10387;51.102;6.848;2023-09-12T03:29:19;17.20;;;13.77;;
20456;SDS011;10387;51.102;6.848;2023-09-12T03:31:46;16.17;;;14.03;;
20456;SDS011;10387;51.102;6.848;2023-09-12T03:34:13;16.17;;;13.87;;
20456;SDS011;10387;51.102;6.848;2023-09-12T03:36:39;17.97;;;13.53;;
20456;SDS011;10387;51.102;6.848;2023-09-12T03:39:05;18.07;;;14.53;;
20456;SDS011;10387;51.102;6.848;2023-09-12T03:41:34;18.97;;;13.73;;
20456;SDS011;10387;51.102;6.848;2023-09-12T03:44:00;17.23;;;14.20;;
20456;SDS011;10387;51.102;6.848;2023-09-12T03:46:27;16.00;;;13.13;;
20456;SDS011;10387;51.102;6.848;2023-09-12T03:48:53;17.80;;;13.93;;
20456;SDS011;10387;51.102;6.848;2023-09-12T03:51:19;15.23;;;12.93;;
20456;SDS011;10387;51.102;6.848;2023-09-12T03:53:48;16.77;;;13.57;;
20456;SDS011;10387;51.102;6.848;2023-09-12T03:56:16;15.70;;;13.00;;
20456;SDS011;10387;51.102;6.848;2023-09-12T03:58:45;17.57;;;13.60;;
20456;SDS011;10387;51.102;6.848;2023-09-12T04:01:11;16.77;;;13.50;;
20456;SDS011;10387;51.102;6.848;2023-09-12T04:03:37;16.50;;;12.37;;
20456;SDS011;10387;51.102;6.848;2023-09-12T04:06:03;16.07;;;12.73;;
20456;SDS011;10387;51.102;6.848;2023-09-12T04:08:30;14.03;;;11.90;;
20456;SDS011;10387;51.102;6.848;2023-09-12T04:10:57;13.87;;;11.83;;
20456;SDS011;10387;51.102;6.848;2023-09-12T04:13:23;16.03;;;12.50;;
20456;SDS011;10387;51.102;6.848;2023-09-12T04:15:49;14.83;;;11.37;;
20456;SDS011;10387;51.102;6.848;2023-09-12T04:18:16;15.97;;;12.00;;
20456;SDS011;10387;51.102;6.848;2023-09-12T04:20:42;13.50;;;11.47;;
20456;SDS011;10387;51.102;6.848;2023-09-12T04:23:08;13.10;;;10.53;;
20456;SDS011;10387;51.102;6.848;2023-09-12T04:25:34;13.70;;;10.43;;
20456;SDS011;10387;51.102;6.848;2023-09-12T04:28:00;11.87;;;9.70;;
20456;SDS011;10387;51.102;6.848;2023-09-12T04:30:27;12.00;;;10.50;;
20456;SDS011;10387;51.102;6.848;2023-09-12T04:32:53;12.20;;;9.60;;
20456;SDS011;10387;51.102;6.848;2023-09-12T04:35:19;14.20;;;10.33;;
20456;SDS011;10387;51.102;6.848;2023-09-12T04:37:48;15.67;;;11.77;;
20456;SDS011;10387;51.102;6.848;2023-09-12T04:40:15;12.80;;;11.13;;
20456;SDS011;10387;51.102;6.848;2023-09-12T04:42:41;12.00;;;10.73;;
20456;SDS011;10387;51.102;6.848;2023-09-12T04:45:08;13.03;;;11.50;;
20456;SDS011;10387;51.102;6.848;2023-09-12T04:47:34;14.57;;;12.10;;
20456;SDS011;10387;51.102;6.848;2023-09-12T04:50:01;16.83;;;12.17;;
20456;SDS011;10387;51.102;6.848;2023-09-12T04:52:28;17.00;;;13.03;;
20456;SDS011;10387;51.102;6.848;2023-09-12T04:54:54;14.50;;;12.43;;
20456;SDS011;10387;51.102;6.848;2023-09-12T04:57:20;16.20;;;11.50;;
20456;SDS011;10387;51.102;6.848;2023-09-12T04:59:46;16.80;;;11.80;;
20456;SDS011;10387;51.102;6.848;2023-09-12T05:02:12;16.13;;;13.10;;
20456;SDS011;10387;51.102;6.848;2023-09-12T05:04:39;17.33;;;13.60;;
20456;SDS011;10387;51.102;6.848;2023-09-12T05:07:05;20.00;;;14.83;;
20456;SDS011;10387;51.102;6.848;2023-09-12T05:09:31;20.13;;;16.17;;
20456;SDS011;10387;51.102;6.848;2023-09-12T05:11:57;21.47;;;16.17;;
20456;SDS011;10387;51.102;6.848;2023-09-12T05:14:24;23.40;;;16.43;;
20456;SDS011;10387;51.102;6.848;2023-09-12T05:16:50;19.27;;;15.20;;
20456;SDS011;10387;51.102;6.848;2023-09-12T05:19:18;22.63;;;17.23;;
20456;SDS011;10387;51.102;6.848;2023-09-12T05:21:44;22.20;;;15.73;;
20456;SDS011;10387;51.102;6.848;2023-09-12T05:24:10;27.37;;;18.30;;
20456;SDS011;10387;51.102;6.848;2023-09-12T05:26:36;23.03;;;17.00;;
20456;SDS011;10387;51.102;6.848;2023-09-12T05:29:03;21.17;;;17.27;;
20456;SDS011;10387;51.102;6.848;2023-09-12T05:31:30;23.23;;;16.87;;
20456;SDS011;10387;51.102;6.848;2023-09-12T05:33:57;22.67;;;18.33;;
20456;SDS011;10387;51.102;6.848;2023-09-12T05:36:25;23.07;;;18.03;;
20456;SDS011;10387;51.102;6.848;2023-09-12T05:38:53;20.87;;;17.23;;
20456;SDS011;10387;51.102;6.848;2023-09-12T05:41:19;23.40;;;18.13;;
20456;SDS011;10387;51.102;6.848;2023-09-12T05:43:45;24.70;;;19.50;;
20456;SDS011;10387;51.102;6.848;2023-09-12T05:46:11;26.83;;;21.57;;
20456;SDS011;10387;51.102;6.848;2023-09-12T05:48:37;30.33;;;23.67;;
20456;SDS011;10387;51.102;6.848;2023-09-12T05:51:03;29.60;;;23.00;;
20456;SDS011;10387;51.102;6.848;2023-09-12T05:53:29;37.30;;;28.23;;
20456;SDS011;10387;51.102;6.848;2023-09-12T05:55:56;39.60;;;30.60;;
20456;SDS011;10387;51.102;6.848;2023-09-12T05:58:22;46.50;;;30.77;;
20456;SDS011;10387;51.102;6.848;2023-09-12T06:00:48;49.43;;;31.97;;
20456;SDS011;10387;51.102;6.848;2023-09-12T06:03:15;44.33;;;31.83;;
20456;SDS011;10387;51.102;6.848;2023-09-12T06:05:41;46.13;;;32.33;;
20456;SDS011;10387;51.102;6.848;2023-09-12T06:08:07;42.23;;;30.57;;
20456;SDS011;10387;51.102;6.848;2023-09-12T06:10:43;38.93;;;29.43;;
20456;SDS011;10387;51.102;6.848;2023-09-12T06:13:13;37.50;;;29.33;;
20456;SDS011;10387;51.102;6.848;2023-09-12T06:15:47;37.27;;;29.37;;
20456;SDS011;10387;51.102;6.848;2023-09-12T06:18:42;38.63;;;30.60;;
20456;SDS011;10387;51.102;6.848;2023-09-12T06:21:41;34.97;;;26.87;;
20456;SDS011;10387;51.102;6.848;2023-09-12T06:24:14;33.23;;;25.87;;
20456;SDS011;10387;51.102;6.848;2023-09-12T06:26:43;34.93;;;25.73;;
20456;SDS011;10387;51.102;6.848;2023-09-12T06:29:20;27.43;;;23.37;;
20456;SDS011;10387;51.102;6.848;2023-09-12T06:31:47;25.90;;;22.40;;
20456;SDS011;10387;51.102;6.848;2023-09-12T06:34:13;26.07;;;22.00;;
20456;SDS011;10387;51.102;6.848;2023-09-12T06:36:39;20.93;;;18.50;;
20456;SDS011;10387;51.102;6.848;2023-09-12T06:39:09;20.13;;;18.03;;
20456;SDS011;10387;51.102;6.848;2023-09-12T06:41:36;21.00;;;18.80;;
20456;SDS011;10387;51.102;6.848;2023-09-12T06:44:02;20.00;;;17.93;;
20456;SDS011;10387;51.102;6.848;2023-09-12T06:46:30;22.50;;;19.33;;
20456;SDS011;10387;51.102;6.848;2023-09-12T06:49:01;23.47;;;19.53;;
20456;SDS011;10387;51.102;6.848;2023-09-12T06:51:28;19.67;;;17.63;;
20456;SDS011;10387;51.102;6.848;2023-09-12T06:53:54;20.63;;;16.17;;
20456;SDS011;10387;51.102;6.848;2023-09-12T06:56:23;18.93;;;16.20;;
20456;SDS011;10387;51.102;6.848;2023-09-12T06:58:49;17.13;;;14.93;;
20456;SDS011;10387;51.102;6.848;2023-09-12T07:01:15;17.43;;;15.57;;
20456;SDS011;10387;51.102;6.848;2023-09-12T07:03:42;16.77;;;14.43;;
20456;SDS011;10387;51.102;6.848;2023-09-12T07:06:08;15.00;;;13.53;;
20456;SDS011;10387;51.102;6.848;2023-09-12T07:08:35;14.10;;;12.10;;
20456;SDS011;10387;51.102;6.848;2023-09-12T07:11:01;14.43;;;12.43;;
20456;SDS011;10387;51.102;6.848;2023-09-12T07:13:31;14.63;;;13.13;;
20456;SDS011;10387;51.102;6.848;2023-09-12T07:15:57;16.00;;;13.70;;
20456;SDS011;10387;51.102;6.848;2023-09-12T07:18:23;14.87;;;13.27;;
20456;SDS011;10387;51.102;6.848;2023-09-12T07:21:02;12.53;;;10.70;;
20456;SDS011;10387;51.102;6.848;2023-09-12T07:23:28;12.10;;;9.27;;
20456;SDS011;10387;51.102;6.848;2023-09-12T07:25:55;10.33;;;9.07;;
20456;SDS011;10387;51.102;6.848;2023-09-12T07:28:27;10.87;;;8.97;;
20456;SDS011;10387;51.102;6.848;2023-09-12T07:30:54;11.07;;;9.90;;
20456;SDS011;10387;51.102;6.848;2023-09-12T07:33:20;10.83;;;8.90;;
20456;SDS011;10387;51.102;6.848;2023-09-12T07:35:47;11.47;;;9.60;;
20456;SDS011;10387;51.102;6.848;2023-09-12T07:38:13;8.07;;;7.27;;
20456;SDS011;10387;51.102;6.848;2023-09-12T07:40:42;8.60;;;7.47;;
20456;SDS011;10387;51.102;6.848;2023-09-12T07:43:09;7.73;;;7.03;;
20456;SDS011;10387;51.102;6.848;2023-09-12T07:45:35;6.87;;;6.17;;
20456;SDS011;10387;51.102;6.848;2023-09-12T07:48:08;7.23;;;6.60;;
20456;SDS011;10387;51.102;6.848;2023-09-12T07:50:35;7.43;;;6.70;;
20456;SDS011;10387;51.102;6.848;2023-09-12T07:53:04;5.63;;;4.90;;
20456;SDS011;10387;51.102;6.848;2023-09-12T07:55:30;6.03;;;5.43;;
20456;SDS011;10387;51.102;6.848;2023-09-12T07:58:02;5.30;;;4.63;;
20456;SDS011;10387;51.102;6.848;2023-09-12T08:00:28;5.87;;;5.37;;
20456;SDS011;10387;51.102;6.848;2023-09-12T08:02:54;5.70;;;5.10;;
20456;SDS011;10387;51.102;6.848;2023-09-12T08:05:20;6.17;;;4.90;;
20456;SDS011;10387;51.102;6.848;2023-09-12T08:07:46;4.90;;;4.37;;
20456;SDS011;10387;51.102;6.848;2023-09-12T08:10:12;3.20;;;3.00;;
20456;SDS011;10387;51.102;6.848;2023-09-12T08:12:38;3.53;;;3.23;;
20456;SDS011;10387;51.102;6.848;2023-09-12T08:15:05;3.37;;;3.10;;
20456;SDS011;10387;51.102;6.848;2023-09-12T08:17:31;4.67;;;3.40;;
20456;SDS011;10387;51.102;6.848;2023-09-12T08:19:58;3.77;;;3.37;;
20456;SDS011;10387;51.102;6.848;2023-09-12T08:22:24;3.53;;;3.23;;
20456;SDS011;10387;51.102;6.848;2023-09-12T08:24:50;3.50;;;3.20;;
20456;SDS011;10387;51.102;6.848;2023-09-12T08:27:16;4.73;;;3.70;;
20456;SDS011;10387;51.102;6.848;2023-09-12T08:29:42;4.43;;;4.03;;
20456;SDS011;10387;51.102;6.848;2023-09-12T08:32:09;4.77;;;4.37;;
20456;SDS011;10387;51.102;6.848;2023-09-12T08:34:35;4.83;;;4.37;;
20456;SDS011;10387;51.102;6.848;2023-09-12T08:37:01;4.83;;;4.37;;
20456;SDS011;10387;51.102;6.848;2023-09-12T08:39:38;5.53;;;5.03;;
20456;SDS011;10387;51.102;6.848;2023-09-12T08:42:05;5.57;;;5.07;;
20456;SDS011;10387;51.102;6.848;2023-09-12T08:44:32;6.87;;;5.63;;
20456;SDS011;10387;51.102;6.848;2023-09-12T08:46:59;5.53;;;4.90;;
20456;SDS011;10387;51.102;6.848;2023-09-12T08:49:26;8.57;;;7.70;;
20456;SDS011;10387;51.102;6.848;2023-09-12T08:51:53;13.03;;;10.57;;
20456;SDS011;10387;51.102;6.848;2023-09-12T08:54:19;10.23;;;9.23;;
20456;SDS011;10387;51.102;6.848;2023-09-12T08:56:45;9.93;;;7.67;;
20456;SDS011;10387;51.102;6.848;2023-09-12T08:59:11;9.30;;;8.30;;
20456;SDS011;10387;51.102;6.848;2023-09-12T09:01:38;7.60;;;6.90;;
20456;SDS011;10387;51.102;6.848;2023-09-12T09:04:05;7.60;;;6.80;;
20456;SDS011;10387;51.102;6.848;2023-09-12T09:06:33;7.40;;;5.57;;
20456;SDS011;10387;51.102;6.848;2023-09-12T09:09:07;6.23;;;5.67;;
20456;SDS011;10387;51.102;6.848;2023-09-12T09:11:35;8.93;;;6.43;;
20456;SDS011;10387;51.102;6.848;2023-09-12T09:14:02;8.93;;;7.30;;
20456;SDS011;10387;51.102;6.848;2023-09-12T09:16:28;8.23;;;6.53;;
20456;SDS011;10387;51.102;6.848;2023-09-12T09:18:55;10.37;;;6.90;;
20456;SDS011;10387;51.102;6.848;2023-09-12T09:21:23;8.83;;;6.93;;
20456;SDS011;10387;51.102;6.848;2023-09-12T09:23:50;7.10;;;5.77;;
20456;SDS011;10387;51.102;6.848;2023-09-12T09:26:17;5.27;;;4.10;;
20456;SDS011;10387;51.102;6.848;2023-09-12T09:28:43;4.50;;;3.80;;
20456;SDS011;10387;51.102;6.848;2023-09-12T09:31:12;5.53;;;3.70;;
20456;SDS011;10387;51.102;6.848;2023-09-12T09:33:39;4.93;;;4.27;;
20456;SDS011;10387;51.102;6.848;2023-09-12T09:36:07;6.20;;;5.60;;
20456;SDS011;10387;51.102;6.848;2023-09-12T09:38:36;6.33;;;5.03;;
20456;SDS011;10387;51.102;6.848;2023-09-12T09:41:08;5.10;;;4.70;;
20456;SDS011;10387;51.102;6.848;2023-09-12T09:43:35;4.50;;;4.10;;
20456;SDS011;10387;51.102;6.848;2023-09-12T09:46:02;4.03;;;3.63;;
20456;SDS011;10387;51.102;6.848;2023-09-12T09:48:28;3.70;;;3.30;;
20456;SDS011;10387;51.102;6.848;2023-09-12T09:51:01;3.40;;;3.10;;
20456;SDS011;10387;51.102;6.848;2023-09-12T09:53:31;2.60;;;2.40;;
20456;SDS011;10387;51.102;6.848;2023-09-12T09:56:16;2.80;;;2.60;;
20456;SDS011;10387;51.102;6.848;2023-09-12T09:58:46;2.50;;;2.30;;
20456;SDS011;10387;51.102;6.848;2023-09-12T10:01:14;2.30;;;2.07;;
20456;SDS011;10387;51.102;6.848;2023-09-12T10:03:43;2.20;;;2.00;;
20456;SDS011;10387;51.102;6.848;2023-09-12T10:06:10;2.50;;;2.30;;
20456;SDS011;10387;51.102;6.848;2023-09-12T10:08:37;2.37;;;2.23;;
20456;SDS011;10387;51.102;6.848;2023-09-12T10:11:04;2.70;;;2.50;;
20456;SDS011;10387;51.102;6.848;2023-09-12T10:13:30;3.00;;;2.23;;
20456;SDS011;10387;51.102;6.848;2023-09-12T10:15:58;3.03;;;2.70;;
20456;SDS011;10387;51.102;6.848;2023-09-12T10:18:30;3.63;;;3.10;;
20456;SDS011;10387;51.102;6.848;2023-09-12T10:21:04;3.23;;;2.60;;
20456;SDS011;10387;51.102;6.848;2023-09-12T10:23:34;5.10;;;4.10;;
20456;SDS011;10387;51.102;6.848;2023-09-12T10:26:07;3.97;;;3.30;;
20456;SDS011;10387;51.102;6.848;2023-09-12T10:28:34;4.97;;;3.40;;
20456;SDS011;10387;51.102;6.848;2023-09-12T10:31:01;5.10;;;3.10;;
20456;SDS011;10387;51.102;6.848;2023-09-12T10:33:27;4.63;;;4.00;;
20456;SDS011;10387;51.102;6.848;2023-09-12T10:35:56;6.07;;;4.90;;
20456;SDS011;10387;51.102;6.848;2023-09-12T10:38:23;3.93;;;3.53;;
20456;SDS011;10387;51.102;6.848;2023-09-12T10:40:52;5.30;;;3.57;;
20456;SDS011;10387;51.102;6.848;2023-09-12T10:43:20;4.87;;;4.37;;
20456;SDS011;10387;51.102;6.848;2023-09-12T10:45:47;6.28;;;5.68;;
20456;SDS011;10387;51.102;6.848;2023-09-12T10:48:14;6.93;;;6.17;;
20456;SDS011;10387;51.102;6.848;2023-09-12T10:50:40;6.37;;;5.67;;
20456;SDS011;10387;51.102;6.848;2023-09-12T10:53:11;6.27;;;5.67;;
20456;SDS011;10387;51.102;6.848;2023-09-12T10:55:37;5.75;;;5.20;;
20456;SDS011;10387;51.102;6.848;2023-09-12T10:58:04;5.63;;;5.00;;
20456;SDS011;10387;51.102;6.848;2023-09-12T11:00:31;5.97;;;5.47;;
20456;SDS011;10387;51.102;6.848;2023-09-12T11:05:51;4.50;;;4.10;;
20456;SDS011;10387;51.102;6.848;2023-09-12T11:08:18;5.23;;;4.50;;
20456;SDS011;10387;51.102;6.848;2023-09-12T11:10:44;5.07;;;3.87;;
20456;SDS011;10387;51.102;6.848;2023-09-12T11:13:17;4.27;;;3.87;;
20456;SDS011;10387;51.102;6.848;2023-09-12T11:16:26;4.37;;;3.97;;
20456;SDS011;10387;51.102;6.848;2023-09-12T11:18:33;4.63;;;3.77;;
20456;SDS011;10387;51.102;6.848;2023-09-12T11:21:00;5.60;;;4.90;;
20456;SDS011;10387;51.102;6.848;2023-09-12T11:23:30;3.70;;;3.40;;
20456;SDS011;10387;51.102;6.848;2023-09-12T11:26:06;4.33;;;3.70;;
20456;SDS011;10387;51.102;6.848;2023-09-12T11:28:32;4.07;;;3.67;;
20456;SDS011;10387;51.102;6.848;2023-09-12T11:30:59;5.20;;;4.70;;
20456;SDS011;10387;51.102;6.848;2023-09-12T11:33:25;6.07;;;4.17;;
20456;SDS011;10387;51.102;6.848;2023-09-12T11:35:52;4.28;;;3.88;;
20456;SDS011;10387;51.102;6.848;2023-09-12T11:38:29;3.90;;;3.60;;
20456;SDS011;10387;51.102;6.848;2023-09-12T11:41:00;4.70;;;4.30;;
20456;SDS011;10387;51.102;6.848;2023-09-12T11:43:27;4.97;;;4.30;;
20456;SDS011;10387;51.102;6.848;2023-09-12T11:45:54;5.15;;;4.60;;
20456;SDS011;10387;51.102;6.848;2023-09-12T11:48:20;5.53;;;4.40;;
20456;SDS011;10387;51.102;6.848;2023-09-12T11:50:51;6.47;;;4.35;;
20456;SDS011;10387;51.102;6.848;2023-09-12T11:53:19;5.05;;;4.28;;
20456;SDS011;10387;51.102;6.848;2023-09-12T11:55:47;6.47;;;4.68;;
20456;SDS011;10387;51.102;6.848;2023-09-12T11:58:15;5.80;;;5.20;;
20456;SDS011;10387;51.102;6.848;2023-09-12T12:00:48;5.28;;;4.88;;
20456;SDS011;10387;51.102;6.848;2023-09-12T12:03:15;4.60;;;4.15;;
20456;SDS011;10387;51.102;6.848;2023-09-12T12:05:41;5.47;;;4.68;;
20456;SDS011;10387;51.102;6.848;2023-09-12T12:08:08;5.57;;;4.97;;
20456;SDS011;10387;51.102;6.848;2023-09-12T12:10:38;5.10;;;4.60;;
20456;SDS011;10387;51.102;6.848;2023-09-12T12:13:05;4.87;;;4.47;;
20456;SDS011;10387;51.102;6.848;2023-09-12T12:15:31;6.63;;;5.03;;
20456;SDS011;10387;51.102;6.848;2023-09-12T12:17:58;5.30;;;4.85;;
20456;SDS011;10387;51.102;6.848;2023-09-12T12:20:24;7.13;;;4.50;;
20456;SDS011;10387;51.102;6.848;2023-09-12T12:22:51;5.20;;;4.80;;
20456;SDS011;10387;51.102;6.848;2023-09-12T12:25:17;4.43;;;4.00;;
20456;SDS011;10387;51.102;6.848;2023-09-12T12:27:49;5.57;;;4.43;;
20456;SDS011;10387;51.102;6.848;2023-09-12T12:30:17;5.40;;;4.90;;
20456;SDS011;10387;51.102;6.848;2023-09-12T12:32:43;5.90;;;4.70;;
20456;SDS011;10387;51.102;6.848;2023-09-12T12:35:19;4.80;;;4.40;;
20456;SDS011;10387;51.102;6.848;2023-09-12T12:37:48;5.77;;;4.70;;
20456;SDS011;10387;51.102;6.848;2023-09-12T12:40:14;5.28;;;4.78;;
20456;SDS011;10387;51.102;6.848;2023-09-12T12:42:44;6.72;;;4.57;;
20456;SDS011;10387;51.102;6.848;2023-09-12T12:45:14;4.80;;;4.32;;
20456;SDS011;10387;51.102;6.848;2023-09-12T12:47:41;5.90;;;4.88;;
20456;SDS011;10387;51.102;6.848;2023-09-12T12:50:13;4.93;;;4.05;;
20456;SDS011;10387;51.102;6.848;2023-09-12T12:52:39;5.53;;;4.90;;
20456;SDS011;10387;51.102;6.848;2023-09-12T12:55:06;5.60;;;5.00;;
20456;SDS011;10387;51.102;6.848;2023-09-12T12:57:35;8.30;;;5.70;;
20456;SDS011;10387;51.102;6.848;2023-09-12T13:00:05;5.63;;;5.13;;
20456;SDS011;10387;51.102;6.848;2023-09-12T13:02:31;6.75;;;5.28;;
20456;SDS011;10387;51.102;6.848;2023-09-12T13:04:58;4.87;;;4.37;;
20456;SDS011;10387;51.102;6.848;2023-09-12T13:07:24;5.63;;;5.07;;
20456;SDS011;10387;51.102;6.848;2023-09-12T13:09:53;5.13;;;4.72;;
20456;SDS011;10387;51.102;6.848;2023-09-12T13:12:20;5.60;;;5.10;;
20456;SDS011;10387;51.102;6.848;2023-09-12T13:14:46;6.13;;;5.43;;
20456;SDS011;10387;51.102;6.848;2023-09-12T13:17:12;5.90;;;5.30;;
20456;SDS011;10387;51.102;6.848;2023-09-12T13:19:38;5.20;;;4.70;;
20456;SDS011;10387;51.102;6.848;2023-09-12T13:22:04;5.28;;;4.78;;
20456;SDS011;10387;51.102;6.848;2023-09-12T13:24:31;5.25;;;4.75;;
20456;SDS011;10387;51.102;6.848;2023-09-12T13:26:57;6.82;;;5.00;;
20456;SDS011;10387;51.102;6.848;2023-09-12T13:29:23;5.57;;;4.97;;
20456;SDS011;10387;51.102;6.848;2023-09-12T13:31:50;5.55;;;5.05;;
20456;SDS011;10387;51.102;6.848;2023-09-12T13:34:17;5.38;;;4.55;;
20456;SDS011;10387;51.102;6.848;2023-09-12T13:36:44;5.50;;;5.00;;
20456;SDS011;10387;51.102;6.848;2023-09-12T13:39:10;5.68;;;5.13;;
20456;SDS011;10387;51.102;6.848;2023-09-12T13:41:38;5.63;;;5.13;;
20456;SDS011;10387;51.102;6.848;2023-09-12T13:44:06;5.55;;;5.05;;
20456;SDS011;10387;51.102;6.848;2023-09-12T13:46:32;5.88;;;5.20;;
20456;SDS011;10387;51.102;6.848;2023-09-12T13:48:58;5.23;;;4.73;;
20456;SDS011;10387;51.102;6.848;2023-09-12T13:51:28;6.28;;;5.68;;
20456;SDS011;10387;51.102;6.848;2023-09-12T13:53:56;5.55;;;5.03;;
20456;SDS011;10387;51.102;6.848;2023-09-12T13:56:23;6.07;;;5.47;;
20456;SDS011;10387;51.102;6.848;2023-09-12T13:58:49;6.15;;;5.55;;
20456;SDS011;10387;51.102;6.848;2023-09-12T14:01:17;5.65;;;5.05;;
20456;SDS011;10387;51.102;6.848;2023-09-12T14:03:44;6.00;;;5.40;;
20456;SDS011;10387;51.102;6.848;2023-09-12T14:06:10;5.75;;;5.25;;
20456;SDS011;10387;51.102;6.848;2023-09-12T14:08:37;5.43;;;4.93;;
20456;SDS011;10387;51.102;6.848;2023-09-12T14:11:04;5.75;;;4.70;;
20456;SDS011;10387;51.102;6.848;2023-09-12T14:13:30;5.55;;;4.88;;
20456;SDS011;10387;51.102;6.848;2023-09-12T14:15:56;5.25;;;4.68;;
20456;SDS011;10387;51.102;6.848;2023-09-12T14:18:22;6.00;;;5.40;;
20456;SDS011;10387;51.102;6.848;2023-09-12T14:20:49;5.75;;;5.15;;
20456;SDS011;10387;51.102;6.848;2023-09-12T14:23:16;5.55;;;5.05;;
20456;SDS011;10387;51.102;6.848;2023-09-12T14:25:42;5.70;;;5.00;;
20456;SDS011;10387;51.102;6.848;2023-09-12T14:28:09;6.22;;;5.72;;
20456;SDS011;10387;51.102;6.848;2023-09-12T14:30:35;6.57;;;5.97;;
20456;SDS011;10387;51.102;6.848;2023-09-12T14:33:03;6.07;;;5.50;;
20456;SDS011;10387;51.102;6.848;2023-09-12T14:35:29;5.90;;;5.30;;
20456;SDS011;10387;51.102;6.848;2023-09-12T14:37:55;6.03;;;5.45;;
20456;SDS011;10387;51.102;6.848;2023-09-12T14:40:21;5.95;;;5.45;;
20456;SDS011;10387;51.102;6.848;2023-09-12T14:42:47;5.97;;;5.38;;